Time;durP1;ratioP1;P1;durP2;ratioP2;P2;SDS_P1;SDS_P2;PMS_P1;PMS_P2;Temp;Humidity;BMP_temperature;BMP_pressure;BME280_temperature;BME280_humidity;BME280_pressure;Samples;Min_cycle;Max_cycle;Signal;HPM_P1;HPM_P2
2023/02/10 00:01:40;;;;;;;23.20;14.20;;;2.60;1.00;;;;;;6216743;23;20714;-80
2023/02/10 00:04:11;;;;;;;30.27;15.88;;;2.60;1.00;;;;;;6218266;23;20300;-79
2023/02/10 00:06:38;;;;;;;23.48;15.45;;;2.70;1.00;;;;;;6216303;23;20221;-78
2023/02/10 00:09:06;;;;;;;24.55;15.45;;;2.70;1.00;;;;;;6217783;23;20245;-78
2023/02/10 00:14:19;;;;;;;23.35;14.18;;;2.60;1.00;;;;;;6219877;23;20228;-76
2023/02/10 00:16:51;;;;;;;24.55;14.88;;;2.60;1.00;;;;;;6218357;23;20627;-77
2023/02/10 00:19:22;;;;;;;23.95;16.75;;;2.60;1.00;;;;;;6219789;23;20303;-82
2023/02/10 00:21:49;;;;;;;27.02;16.50;;;2.60;1.00;;;;;;6218838;23;20220;-76
2023/02/10 00:24:16;;;;;;;23.88;14.75;;;2.60;1.00;;;;;;6219646;23;20961;-77
2023/02/10 00:26:45;;;;;;;25.98;16.05;;;2.60;1.00;;;;;;6219124;23;20309;-77
2023/02/10 00:29:11;;;;;;;23.95;15.75;;;2.60;1.00;;;;;;6220279;23;20913;-78
2023/02/10 00:31:38;;;;;;;24.73;15.57;;;2.60;1.00;;;;;;6218934;23;20234;-77
2023/02/10 00:34:08;;;;;;;23.58;15.65;;;2.60;1.00;;;;;;6220309;23;20217;-77
2023/02/10 00:36:35;;;;;;;25.17;16.48;;;2.60;1.00;;;;;;6217248;23;20205;-76
2023/02/10 00:39:02;;;;;;;23.45;15.85;;;2.60;1.00;;;;;;6220696;23;20964;-77
2023/02/10 00:41:30;;;;;;;24.60;16.23;;;2.50;1.00;;;;;;6218325;23;20288;-76
2023/02/10 00:44:03;;;;;;;24.40;17.08;;;2.50;1.00;;;;;;6219570;23;20221;-76
2023/02/10 00:46:31;;;;;;;22.25;16.15;;;2.40;1.00;;;;;;6221606;23;20269;-80
2023/02/10 00:49:02;;;;;;;23.08;16.52;;;2.30;1.00;;;;;;6231875;23;20205;-77
2023/02/10 00:51:33;;;;;;;23.13;16.05;;;2.30;1.00;;;;;;6229452;23;20197;-77
2023/02/10 00:54:01;;;;;;;23.48;15.90;;;2.30;1.00;;;;;;6232119;23;20209;-79
2023/02/10 00:56:33;;;;;;;24.58;16.13;;;2.30;1.00;;;;;;6229822;23;20205;-79
2023/02/10 00:59:00;;;;;;;24.08;16.60;;;2.40;1.00;;;;;;6218455;23;20280;-80
2023/02/10 01:01:27;;;;;;;30.25;17.73;;;2.40;1.00;;;;;;6219969;23;20214;-79
2023/02/10 01:03:54;;;;;;;26.42;15.35;;;2.50;1.00;;;;;;6184090;23;20246;-80
2023/02/10 01:06:21;;;;;;;26.15;16.20;;;2.50;1.00;;;;;;6213518;23;20271;-78
2023/02/10 01:08:49;;;;;;;23.98;16.73;;;2.50;1.00;;;;;;6217965;23;20245;-79
2023/02/10 01:11:20;;;;;;;24.40;15.77;;;2.50;1.00;;;;;;6219733;23;20666;-79
2023/02/10 01:16:28;;;;;;;26.33;17.05;;;2.60;1.00;;;;;;6219365;23;20686;-80
2023/02/10 01:18:54;;;;;;;23.20;14.50;;;2.70;1.00;;;;;;6221309;23;20222;-80
2023/02/10 01:21:22;;;;;;;24.95;16.60;;;2.70;1.00;;;;;;6221303;23;20209;-80
2023/02/10 01:23:50;;;;;;;23.70;16.20;;;2.60;1.00;;;;;;6222418;23;20224;-79
2023/02/10 01:26:17;;;;;;;24.77;15.48;;;2.60;1.00;;;;;;6220198;23;20683;-79
2023/02/10 01:28:46;;;;;;;23.40;16.10;;;2.40;1.00;;;;;;6222587;23;20674;-79
2023/02/10 01:31:14;;;;;;;25.90;16.83;;;2.30;1.00;;;;;;6220477;23;20681;-79
2023/02/10 01:33:42;;;;;;;25.50;16.73;;;2.20;1.00;;;;;;6219455;23;20205;-79
2023/02/10 01:36:11;;;;;;;26.27;16.52;;;2.10;1.00;;;;;;6221569;23;20276;-81
2023/02/10 01:38:39;;;;;;;25.02;16.58;;;2.00;1.00;;;;;;6219778;23;20780;-80
2023/02/10 01:41:14;;;;;;;24.75;16.08;;;2.00;1.00;;;;;;6221203;23;20736;-79
2023/02/10 01:44:00;;;;;;;23.83;16.08;;;1.90;1.00;;;;;;6220399;23;20971;-79
2023/02/10 01:46:34;;;;;;;29.00;16.17;;;1.90;1.00;;;;;;6217539;23;20210;-81
2023/02/10 01:49:04;;;;;;;25.58;16.23;;;1.80;1.00;;;;;;6220891;23;20205;-80
2023/02/10 01:51:38;;;;;;;23.63;16.63;;;1.80;1.00;;;;;;6219351;23;20260;-80
2023/02/10 01:54:07;;;;;;;27.13;16.83;;;1.70;1.00;;;;;;6221880;23;20252;-78
2023/02/10 01:56:35;;;;;;;27.20;16.30;;;1.70;1.00;;;;;;6219135;23;20912;-80
2023/02/10 01:59:02;;;;;;;24.70;17.08;;;1.70;1.00;;;;;;6220853;23;20280;-80
2023/02/10 02:01:29;;;;;;;25.00;16.80;;;1.60;1.00;;;;;;6219166;23;20213;-78
2023/02/10 02:03:58;;;;;;;24.80;16.33;;;1.60;1.00;;;;;;6218774;23;20213;-77
2023/02/10 02:06:25;;;;;;;24.38;16.88;;;1.60;1.00;;;;;;6216946;23;20272;-78
2023/02/10 02:08:53;;;;;;;25.08;18.00;;;1.60;1.00;;;;;;6218881;23;20217;-80
2023/02/10 02:11:24;;;;;;;28.75;18.10;;;1.50;1.00;;;;;;6218445;23;20229;-77
2023/02/10 02:14:24;;;;;;;27.95;18.02;;;1.50;1.00;;;;;;6218624;23;20944;-77
2023/02/10 02:17:03;;;;;;;26.70;16.95;;;1.50;1.00;;;;;;6218874;23;20213;-79
2023/02/10 02:23:18;;;;;;;27.75;17.83;;;1.40;1.00;;;;;;6196264;23;20217;-77
2023/02/10 02:26:31;;;;;;;26.83;16.88;;;1.40;1.00;;;;;;6225475;23;20229;-82
2023/02/10 02:29:34;;;;;;;27.13;17.50;;;1.40;1.00;;;;;;6233281;23;20248;-81
2023/02/10 02:32:14;;;;;;;28.23;18.73;;;1.30;1.00;;;;;;6209100;23;20217;-80
2023/02/10 02:35:03;;;;;;;29.83;17.35;;;1.30;1.00;;;;;;6231040;23;21075;-80
2023/02/10 02:37:34;;;;;;;26.55;16.80;;;1.30;1.00;;;;;;6233293;23;20261;-81
2023/02/10 02:40:02;;;;;;;25.17;15.80;;;1.30;1.00;;;;;;6233869;23;20225;-77
2023/02/10 02:42:33;;;;;;;30.17;18.50;;;1.30;1.00;;;;;;6232398;23;20202;-80
2023/02/10 02:45:08;;;;;;;29.13;17.63;;;1.20;1.00;;;;;;6234730;23;20213;-81
2023/02/10 02:48:00;;;;;;;24.65;16.83;;;1.20;1.00;;;;;;6230642;23;20224;-80
2023/02/10 02:50:36;;;;;;;31.70;18.25;;;1.30;1.00;;;;;;6232706;23;20216;-80
2023/02/10 02:53:20;;;;;;;30.15;18.55;;;1.20;1.00;;;;;;6232534;23;20190;-81
2023/02/10 02:56:00;;;;;;;28.98;17.30;;;1.30;1.00;;;;;;6232304;23;20201;-80
2023/02/10 02:58:44;;;;;;;28.35;17.40;;;1.40;1.00;;;;;;6233928;23;20257;-80
2023/02/10 03:01:24;;;;;;;26.63;16.88;;;1.50;1.00;;;;;;6232929;23;20197;-82
2023/02/10 03:04:05;;;;;;;26.02;16.65;;;1.50;1.00;;;;;;6232675;23;20221;-81
2023/02/10 03:06:32;;;;;;;27.95;17.10;;;1.50;1.00;;;;;;6233064;23;20224;-81
2023/02/10 03:09:02;;;;;;;25.88;17.67;;;1.60;1.00;;;;;;6196270;23;20244;-80
2023/02/10 03:11:39;;;;;;;29.60;17.63;;;1.50;1.00;;;;;;6215068;23;20232;-80
2023/02/10 03:14:07;;;;;;;27.85;17.05;;;1.60;1.00;;;;;;6233406;23;20683;-80
2023/02/10 03:16:35;;;;;;;26.15;17.30;;;1.50;1.00;;;;;;6199161;23;20648;-81
2023/02/10 03:19:08;;;;;;;30.80;18.45;;;1.50;1.00;;;;;;6221304;23;20224;-79
2023/02/10 03:21:41;;;;;;;28.83;19.60;;;1.60;1.00;;;;;;6228590;23;20216;-77
2023/02/10 03:24:11;;;;;;;28.42;17.50;;;1.60;1.00;;;;;;6230479;23;20221;-78
2023/02/10 03:26:42;;;;;;;28.98;17.88;;;1.70;1.00;;;;;;6227220;23;20220;-78
2023/02/10 03:29:14;;;;;;;27.13;18.27;;;1.60;1.00;;;;;;6231917;23;20229;-77
2023/02/10 03:31:42;;;;;;;29.38;19.92;;;1.60;1.00;;;;;;6227888;23;20220;-77
2023/02/10 03:34:13;;;;;;;29.40;17.90;;;1.60;1.00;;;;;;6227033;23;20237;-80
2023/02/10 03:36:43;;;;;;;28.02;18.42;;;1.60;1.00;;;;;;6227188;23;20209;-80
2023/02/10 03:39:12;;;;;;;34.40;21.52;;;1.60;1.00;;;;;;6231223;23;20225;-80
2023/02/10 03:41:42;;;;;;;29.45;19.30;;;1.70;1.00;;;;;;6230234;23;20201;-80
2023/02/10 03:44:12;;;;;;;35.05;18.33;;;1.70;1.00;;;;;;6225882;23;20197;-79
2023/02/10 03:46:42;;;;;;;29.63;19.58;;;1.70;1.00;;;;;;6230521;23;20190;-78
2023/02/10 03:49:13;;;;;;;30.00;20.30;;;1.70;1.00;;;;;;6231671;23;20200;-78
2023/02/10 03:51:42;;;;;;;32.40;19.60;;;1.70;1.00;;;;;;6199655;23;20287;-79
2023/02/10 03:54:13;;;;;;;35.85;22.98;;;1.80;1.00;;;;;;6222381;23;20205;-79
2023/02/10 03:56:44;;;;;;;31.58;19.73;;;1.80;1.00;;;;;;6225258;23;20210;-79
2023/02/10 03:59:12;;;;;;;34.47;21.85;;;1.80;1.00;;;;;;6193878;23;20205;-77
2023/02/10 04:01:43;;;;;;;30.55;21.67;;;1.90;1.00;;;;;;6227313;23;20214;-76
2023/02/10 04:04:26;;;;;;;34.33;23.40;;;2.00;1.00;;;;;;6230824;23;20322;-78
2023/02/10 04:06:53;;;;;;;37.10;23.90;;;1.90;1.00;;;;;;6218718;23;20873;-79
2023/02/10 04:09:23;;;;;;;37.13;23.58;;;1.90;1.00;;;;;;6232608;23;20213;-80
2023/02/10 04:11:53;;;;;;;36.15;22.55;;;2.00;1.00;;;;;;6230334;23;20221;-79
2023/02/10 04:14:20;;;;;;;32.05;22.50;;;2.00;1.00;;;;;;6218668;23;20209;-79
2023/02/10 04:16:47;;;;;;;38.40;24.17;;;2.00;1.00;;;;;;6218705;23;20214;-80
2023/02/10 04:19:16;;;;;;;35.65;24.38;;;2.00;1.00;;;;;;6220276;23;20213;-78
2023/02/10 04:21:43;;;;;;;34.65;24.20;;;2.10;1.00;;;;;;6218827;23;20300;-79
2023/02/10 04:24:11;;;;;;;33.65;23.65;;;2.10;1.00;;;;;;6220403;23;20213;-80
2023/02/10 04:26:40;;;;;;;35.75;24.13;;;2.10;1.00;;;;;;6220301;23;20271;-79
2023/02/10 04:29:07;;;;;;;42.70;24.85;;;2.10;1.00;;;;;;6220016;23;21026;-79
2023/02/10 04:31:34;;;;;;;39.70;25.75;;;2.10;1.00;;;;;;6222491;23;20299;-79
2023/02/10 04:34:01;;;;;;;34.67;23.58;;;2.10;1.00;;;;;;6218993;23;20476;-79
2023/02/10 04:36:31;;;;;;;32.63;23.35;;;2.10;1.00;;;;;;6220820;23;20261;-79
2023/02/10 04:39:00;;;;;;;38.97;26.15;;;2.10;1.00;;;;;;6222401;23;20987;-78
2023/02/10 04:41:27;;;;;;;38.67;24.38;;;2.20;1.00;;;;;;6220727;23;20232;-81
2023/02/10 04:43:55;;;;;;;39.65;26.35;;;2.20;1.00;;;;;;6219410;23;20734;-79
2023/02/10 04:46:22;;;;;;;39.58;25.40;;;2.20;1.00;;;;;;6219055;23;20217;-78
2023/02/10 04:48:48;;;;;;;38.80;25.30;;;2.20;1.00;;;;;;6217308;23;20296;-79
2023/02/10 04:51:15;;;;;;;37.65;24.70;;;2.20;1.00;;;;;;6207121;23;20221;-81
2023/02/10 04:53:44;;;;;;;41.58;26.25;;;2.30;1.00;;;;;;6220107;23;20304;-79
2023/02/10 04:56:11;;;;;;;36.65;25.15;;;2.40;1.00;;;;;;6220479;23;20224;-78
2023/02/10 04:58:41;;;;;;;37.78;25.08;;;2.40;1.00;;;;;;6220526;23;20217;-78
2023/02/10 05:01:08;;;;;;;40.85;25.75;;;2.40;1.00;;;;;;6219369;23;20280;-79
2023/02/10 05:03:37;;;;;;;38.05;24.73;;;2.50;1.00;;;;;;6216064;23;20245;-79
2023/02/10 05:06:12;;;;;;;37.90;26.17;;;2.50;1.00;;;;;;6220355;23;20647;-79
2023/02/10 05:08:41;;;;;;;40.22;26.98;;;2.50;1.00;;;;;;6218169;23;20251;-80
2023/02/10 05:11:10;;;;;;;45.72;27.88;;;2.50;1.00;;;;;;6204670;23;21049;-78
2023/02/10 05:13:37;;;;;;;37.70;24.30;;;2.40;1.00;;;;;;6219424;23;20296;-80
2023/02/10 05:16:04;;;;;;;41.15;25.98;;;2.40;1.00;;;;;;6220553;23;20921;-79
2023/02/10 05:18:33;;;;;;;41.35;26.55;;;2.40;1.00;;;;;;6218063;23;20288;-80
2023/02/10 05:21:02;;;;;;;42.15;27.30;;;2.40;1.00;;;;;;6206391;23;20209;-80
2023/02/10 05:23:31;;;;;;;40.05;25.95;;;2.40;1.00;;;;;;6221802;23;20221;-79
2023/02/10 05:26:00;;;;;;;46.17;27.80;;;2.40;1.00;;;;;;6222286;23;21041;-78
2023/02/10 05:28:28;;;;;;;39.08;25.42;;;2.40;1.00;;;;;;6204280;23;20220;-79
2023/02/10 05:30:55;;;;;;;40.90;26.30;;;2.50;1.00;;;;;;6166853;23;20213;-80
2023/02/10 05:33:22;;;;;;;45.35;27.20;;;2.50;1.00;;;;;;6220177;23;20252;-79
2023/02/10 05:35:49;;;;;;;46.92;26.90;;;2.50;1.00;;;;;;6217956;23;20218;-80
2023/02/10 05:38:16;;;;;;;35.45;25.75;;;2.50;1.00;;;;;;6219293;23;20213;-78
2023/02/10 05:40:43;;;;;;;41.67;26.33;;;2.50;1.00;;;;;;6191965;23;20206;-79
2023/02/10 05:43:10;;;;;;;43.40;28.75;;;2.60;1.00;;;;;;6220251;23;20794;-78
2023/02/10 05:45:40;;;;;;;44.80;28.30;;;2.60;1.00;;;;;;6209034;23;20557;-81
2023/02/10 05:48:08;;;;;;;45.70;27.60;;;2.60;1.00;;;;;;6222631;23;20227;-79
2023/02/10 05:50:35;;;;;;;47.30;29.50;;;2.60;1.00;;;;;;6221304;23;20682;-81
2023/02/10 05:53:03;;;;;;;41.15;27.38;;;2.50;1.00;;;;;;6220966;23;20240;-80
2023/02/10 05:55:31;;;;;;;38.40;25.52;;;2.50;1.00;;;;;;6220295;23;20210;-78
2023/02/10 05:58:00;;;;;;;43.78;27.90;;;2.40;1.00;;;;;;6185485;23;20293;-80
2023/02/10 06:00:29;;;;;;;43.13;26.45;;;2.30;1.00;;;;;;6185344;23;20938;-78
2023/02/10 06:02:58;;;;;;;42.65;28.67;;;2.20;1.00;;;;;;6209372;23;20213;-80
2023/02/10 06:05:24;;;;;;;44.42;26.40;;;2.20;1.00;;;;;;6219469;23;20213;-78
2023/02/10 06:07:54;;;;;;;46.30;27.35;;;2.10;1.00;;;;;;6219515;23;20221;-80
2023/02/10 06:10:21;;;;;;;42.42;28.50;;;2.00;1.00;;;;;;6220048;23;20213;-80
2023/02/10 06:12:50;;;;;;;42.47;27.88;;;2.00;1.00;;;;;;6219083;23;20189;-81
2023/02/10 06:15:18;;;;;;;50.22;27.77;;;2.00;1.00;;;;;;6219330;23;20217;-80
2023/02/10 06:17:45;;;;;;;46.15;26.80;;;2.00;1.00;;;;;;6205743;23;20987;-80
2023/02/10 06:20:13;;;;;;;41.60;26.67;;;1.90;1.00;;;;;;6207567;23;20220;-79
2023/02/10 06:22:42;;;;;;;47.72;27.75;;;1.80;1.00;;;;;;6221724;23;20210;-79
2023/02/10 06:25:12;;;;;;;43.50;27.20;;;1.80;1.00;;;;;;6184950;23;20212;-79
2023/02/10 06:27:39;;;;;;;48.25;28.50;;;1.80;1.00;;;;;;6207284;23;20384;-83
2023/02/10 06:30:10;;;;;;;42.72;27.80;;;1.80;1.00;;;;;;6225302;23;20603;-79
2023/02/10 06:32:45;;;;;;;48.08;26.67;;;1.80;1.00;;;;;;6207376;23;20224;-81
2023/02/10 06:35:14;;;;;;;47.63;27.88;;;1.80;1.00;;;;;;6197930;23;20213;-81
2023/02/10 06:37:45;;;;;;;43.50;28.75;;;1.80;1.00;;;;;;6201263;23;20272;-83
2023/02/10 06:40:21;;;;;;;42.88;26.70;;;1.90;1.00;;;;;;6228514;23;20217;-84
2023/02/10 06:43:02;;;;;;;43.22;27.00;;;1.80;1.00;;;;;;6232792;23;20196;-84
2023/02/10 06:45:35;;;;;;;45.55;27.58;;;1.80;1.00;;;;;;6204440;23;20210;-81
2023/02/10 06:48:03;;;;;;;44.67;29.67;;;1.90;1.00;;;;;;6198985;23;20210;-80
2023/02/10 06:50:35;;;;;;;45.42;29.23;;;1.90;1.00;;;;;;6218026;23;20206;-82
2023/02/10 06:53:02;;;;;;;41.70;27.25;;;1.90;1.00;;;;;;6146654;23;20219;-82
2023/02/10 06:55:34;;;;;;;48.08;29.60;;;1.90;1.00;;;;;;6131669;23;20199;-82
2023/02/10 06:58:15;;;;;;;;;;;;;;;;;;;;;
2023/02/10 07:00:44;;;;;;;41.28;27.30;;;2.10;1.00;;;;;;6202950;23;43601;-81
2023/02/10 07:03:15;;;;;;;47.20;28.08;;;2.10;1.00;;;;;;6232939;23;20202;-80
2023/02/10 07:05:44;;;;;;;49.42;30.05;;;2.10;1.00;;;;;;6213537;23;21363;-84
2023/02/10 07:11:15;;;;;;;49.05;29.70;;;2.20;1.00;;;;;;6180301;23;20221;-80
2023/02/10 07:13:47;;;;;;;47.75;28.40;;;2.30;1.00;;;;;;6219409;23;20223;-78
2023/02/10 07:16:16;;;;;;;38.63;27.45;;;2.40;1.00;;;;;;6230822;23;20216;-80
2023/02/10 07:18:44;;;;;;;45.13;27.00;;;2.40;1.00;;;;;;6215386;23;20272;-79
2023/02/10 07:23:57;;;;;;;43.55;27.55;;;2.50;1.00;;;;;;6163207;23;20217;-79
2023/02/10 07:26:24;;;;;;;50.08;29.15;;;2.60;1.00;;;;;;6231000;23;21284;-78
2023/02/10 07:29:04;;;;;;;43.28;26.75;;;2.60;1.00;;;;;;6229536;23;20268;-77
2023/02/10 07:31:43;;;;;;;44.30;28.17;;;2.70;1.00;;;;;;6199565;23;20210;-79
2023/02/10 07:34:13;;;;;;;41.13;26.85;;;2.70;1.00;;;;;;6197827;23;20225;-78
2023/02/10 07:36:53;;;;;;;41.47;28.13;;;2.80;1.00;;;;;;6218164;23;20213;-79
2023/02/10 07:39:23;;;;;;;46.55;26.77;;;2.80;1.00;;;;;;6235085;23;20237;-78
2023/02/10 07:41:55;;;;;;;50.03;29.70;;;2.90;1.00;;;;;;6235166;23;20216;-79
2023/02/10 07:44:22;;;;;;;40.78;28.98;;;3.00;1.00;;;;;;6226998;23;20284;-79
2023/02/10 07:46:51;;;;;;;42.92;27.38;;;3.00;1.00;;;;;;6224089;23;20213;-80
2023/02/10 07:49:18;;;;;;;43.88;26.17;;;3.10;1.00;;;;;;6198586;23;20276;-79
2023/02/10 07:51:46;;;;;;;38.83;25.92;;;3.10;1.00;;;;;;6205498;23;20213;-77
2023/02/10 07:54:15;;;;;;;41.28;26.90;;;3.20;1.00;;;;;;6226965;23;20228;-79
2023/02/10 07:56:44;;;;;;;38.95;26.13;;;3.20;1.00;;;;;;6225349;23;25155;-79
2023/02/10 07:59:12;;;;;;;44.75;24.45;;;3.30;1.00;;;;;;6205260;23;20265;-78
2023/02/10 08:01:55;;;;;;;41.08;28.10;;;3.20;1.00;;;;;;6177081;23;20353;-80
2023/02/10 08:04:24;;;;;;;39.35;25.80;;;3.20;1.00;;;;;;6204862;23;20225;-79
2023/02/10 08:06:53;;;;;;;41.90;25.70;;;3.30;1.00;;;;;;6211658;23;20670;-82
2023/02/10 08:09:20;;;;;;;42.70;26.52;;;3.20;1.00;;;;;;6224116;23;20244;-81
2023/02/10 08:11:48;;;;;;;41.22;26.48;;;3.20;1.00;;;;;;6203073;23;21548;-80
2023/02/10 08:14:22;;;;;;;47.97;26.00;;;3.30;1.00;;;;;;6221243;23;20226;-79
2023/02/10 08:16:49;;;;;;;38.03;25.25;;;3.40;1.00;;;;;;6218075;23;20291;-80
2023/02/10 08:19:20;;;;;;;39.83;26.02;;;3.50;1.00;;;;;;6195303;23;20569;-81
2023/02/10 08:21:50;;;;;;;39.72;26.38;;;3.60;1.00;;;;;;6196326;23;20233;-81
2023/02/10 08:24:19;;;;;;;38.70;25.40;;;3.80;1.00;;;;;;6223171;23;20894;-80
2023/02/10 08:26:46;;;;;;;38.10;24.23;;;3.90;1.00;;;;;;6216903;23;20328;-79
2023/02/10 08:29:13;;;;;;;39.25;25.48;;;4.10;1.00;;;;;;6222875;23;20219;-78
2023/02/10 08:31:44;;;;;;;41.05;26.08;;;4.10;1.00;;;;;;6220873;23;20210;-81
2023/02/10 08:34:16;;;;;;;46.63;25.75;;;4.20;1.00;;;;;;6218572;23;20288;-79
2023/02/10 08:36:43;;;;;;;40.65;27.45;;;4.30;1.00;;;;;;6193241;23;20209;-81
2023/02/10 08:39:10;;;;;;;38.17;25.00;;;4.50;1.00;;;;;;6221724;23;20726;-82
2023/02/10 08:41:41;;;;;;;34.85;23.38;;;4.50;1.00;;;;;;6208916;23;20280;-82
2023/02/10 08:44:10;;;;;;;37.72;24.67;;;4.50;1.00;;;;;;6222908;23;20228;-81
2023/02/10 08:46:41;;;;;;;44.28;26.48;;;4.50;1.00;;;;;;6221385;23;20209;-80
2023/02/10 08:49:10;;;;;;;37.80;25.67;;;4.60;1.00;;;;;;6222932;22;20304;-83
2023/02/10 08:51:43;;;;;;;40.92;24.40;;;4.70;1.00;;;;;;6219882;23;20217;-81
2023/02/10 08:54:15;;;;;;;42.47;26.58;;;4.70;1.00;;;;;;6221767;23;20320;-80
2023/02/10 08:56:44;;;;;;;34.10;23.55;;;4.90;1.00;;;;;;6168494;23;20220;-82
2023/02/10 08:59:11;;;;;;;44.15;24.63;;;5.00;1.00;;;;;;6221698;23;20236;-81
2023/02/10 09:04:13;;;;;;;38.28;25.17;;;5.30;1.00;;;;;;6144645;23;20680;-80
2023/02/10 09:06:43;;;;;;;38.40;23.70;;;5.60;1.00;;;;;;6134525;23;20715;-80
2023/02/10 09:09:12;;;;;;;40.20;25.40;;;5.60;1.00;;;;;;6161610;23;20210;-82
2023/02/10 09:11:40;;;;;;;39.75;26.02;;;5.50;1.00;;;;;;6132586;23;20261;-80
2023/02/10 09:14:13;;;;;;;39.25;25.25;;;5.60;1.00;;;;;;6162425;23;20215;-80
2023/02/10 09:16:55;;;;;;;36.33;26.52;;;5.70;1.00;;;;;;6138801;23;20222;-80
2023/02/10 09:19:23;;;;;;;35.85;24.77;;;5.70;1.00;;;;;;6149335;23;20207;-78
2023/02/10 09:22:02;;;;;;;39.50;24.85;;;5.70;1.00;;;;;;6161004;23;20624;-78
2023/02/10 09:24:32;;;;;;;40.45;25.38;;;5.80;1.00;;;;;;6121290;23;20286;-81
2023/02/10 09:27:04;;;;;;;42.90;26.23;;;5.90;1.00;;;;;;6152930;23;20292;-81
2023/02/10 09:29:42;;;;;;;44.90;24.88;;;6.00;1.00;;;;;;6163660;23;21016;-82
2023/02/10 09:32:33;;;;;;;46.78;27.45;;;6.00;1.00;;;;;;6140084;23;20683;-81
2023/02/10 09:35:08;;;;;;;42.28;24.58;;;5.80;1.00;;;;;;6136149;23;20302;-82
2023/02/10 09:37:36;;;;;;;49.10;28.15;;;5.80;1.00;;;;;;6147724;23;20211;-84
2023/02/10 09:40:05;;;;;;;38.55;25.65;;;6.10;1.00;;;;;;6151101;23;20246;-82
2023/02/10 09:42:56;;;;;;;44.20;25.48;;;6.60;1.00;;;;;;6119681;23;20203;-82
2023/02/10 09:45:39;;;;;;;40.40;26.00;;;7.30;1.00;;;;;;6128805;23;20892;-82
2023/02/10 09:48:21;;;;;;;43.25;25.13;;;7.90;1.00;;;;;;6162070;23;20356;-81
2023/02/10 09:51:00;;;;;;;46.92;26.80;;;8.30;1.00;;;;;;6147631;23;20252;-81
2023/02/10 09:53:34;;;;;;;44.90;26.35;;;8.20;1.00;;;;;;6144789;23;20215;-81
2023/02/10 09:56:05;;;;;;;39.72;26.02;;;7.60;1.00;;;;;;6143993;23;20293;-82
2023/02/10 09:58:41;;;;;;;42.28;25.42;;;7.10;1.00;;;;;;6162711;23;20634;-82
2023/02/10 10:01:25;;;;;;;42.70;27.58;;;7.00;1.00;;;;;;6144148;23;20337;-80
2023/02/10 10:04:05;;;;;;;37.53;25.30;;;7.10;1.00;;;;;;6146521;23;20275;-83
2023/02/10 10:06:46;;;;;;;43.05;25.35;;;6.90;1.00;;;;;;6122005;23;20226;-80
2023/02/10 10:09:35;;;;;;;42.00;26.13;;;6.70;1.00;;;;;;6145779;23;20602;-83
2023/02/10 10:12:45;;;;;;;43.55;25.60;;;6.50;1.00;;;;;;6134663;23;20750;-83
2023/02/10 10:15:21;;;;;;;40.45;23.40;;;6.30;1.00;;;;;;6130004;23;20214;-81
2023/02/10 10:18:12;;;;;;;43.95;25.73;;;6.20;1.00;;;;;;6122483;23;20219;-82
2023/02/10 10:20:57;;;;;;;40.47;26.02;;;6.20;1.00;;;;;;6132380;23;20298;-80
2023/02/10 10:23:43;;;;;;;43.55;27.23;;;6.10;1.00;;;;;;6144005;23;20210;-81
2023/02/10 10:26:31;;;;;;;47.45;28.30;;;6.00;1.00;;;;;;6160986;23;20215;-83
2023/02/10 10:29:15;;;;;;;45.90;28.43;;;6.20;1.00;;;;;;6143698;23;20475;-82
2023/02/10 10:31:56;;;;;;;;;;;;;;;;;;;;;
2023/02/10 10:34:43;;;;;;;48.10;26.10;;;6.60;1.00;;;;;;6104946;23;40643;-84
2023/02/10 10:37:25;;;;;;;40.97;25.52;;;6.50;1.00;;;;;;6149965;23;20214;-83
2023/02/10 10:40:02;;;;;;;39.75;24.33;;;6.40;1.00;;;;;;6157918;23;20226;-82
2023/02/10 10:42:46;;;;;;;40.00;25.33;;;6.20;1.00;;;;;;6154008;23;20270;-82
2023/02/10 10:45:34;;;;;;;39.50;23.33;;;6.20;1.00;;;;;;6148065;23;20203;-81
2023/02/10 10:48:12;;;;;;;48.65;27.20;;;6.30;1.00;;;;;;6139322;23;20716;-82
2023/02/10 10:50:54;;;;;;;43.40;27.38;;;6.60;1.00;;;;;;6165913;23;20569;-82
2023/02/10 10:53:36;;;;;;;42.33;25.52;;;6.70;1.00;;;;;;6142115;23;20211;-83
2023/02/10 10:56:12;;;;;;;38.20;22.33;;;6.70;1.00;;;;;;6138264;23;20214;-83
2023/02/10 10:59:03;;;;;;;41.70;23.92;;;6.90;1.00;;;;;;6118244;23;20930;-84
2023/02/10 11:01:42;;;;;;;33.05;23.33;;;7.00;1.00;;;;;;6116365;23;20223;-81
2023/02/10 11:04:27;;;;;;;41.95;23.38;;;6.90;1.00;;;;;;6135799;23;20214;-84
2023/02/10 11:07:05;;;;;;;50.42;25.90;;;6.80;1.00;;;;;;6125069;23;20683;-84
2023/02/10 11:09:42;;;;;;;40.22;23.33;;;6.80;1.00;;;;;;6121189;23;20241;-82
2023/02/10 11:12:26;;;;;;;41.75;25.75;;;7.00;1.00;;;;;;6153971;23;20225;-84
2023/02/10 11:15:03;;;;;;;36.50;22.73;;;7.10;1.00;;;;;;6142382;23;20257;-85
2023/02/10 11:17:36;;;;;;;41.15;22.13;;;7.10;1.00;;;;;;6139556;23;20914;-84
2023/02/10 11:20:07;;;;;;;39.15;24.20;;;6.90;1.00;;;;;;6156286;23;20222;-84
2023/02/10 11:23:13;;;;;;;37.15;24.52;;;7.10;1.00;;;;;;6149746;23;20225;-82
2023/02/10 11:25:55;;;;;;;39.50;21.83;;;7.30;1.00;;;;;;6124544;23;20236;-82
2023/02/10 11:28:43;;;;;;;32.65;21.40;;;7.60;1.00;;;;;;6152910;23;20219;-86
2023/02/10 11:31:37;;;;;;;39.15;22.33;;;8.00;1.00;;;;;;6142076;23;21142;-86
2023/02/10 11:37:26;;;;;;;31.70;21.77;;;8.60;1.00;;;;;;6143600;23;20314;-84
2023/02/10 11:40:04;;;;;;;41.55;23.58;;;8.60;1.00;;;;;;6143657;23;20220;-84
2023/02/10 11:45:43;;;;;;;37.80;24.13;;;9.30;1.00;;;;;;6149724;23;20265;-88
2023/02/10 11:51:25;;;;;;;41.83;25.40;;;10.20;1.00;;;;;;6112264;23;20225;-87
2023/02/10 11:54:27;;;;;;;;;;;;;;;;;;;;;
2023/02/10 12:00:34;;;;;;;36.03;23.47;;;11.10;1.00;;;;;;6147923;23;20439;-87
2023/02/10 12:03:46;;;;;;;37.13;22.60;;;11.60;1.00;;;;;;6142424;23;20510;-83
2023/02/10 12:06:34;;;;;;;35.87;23.50;;;12.00;1.00;;;;;;6093068;23;20397;-86
2023/02/10 12:09:43;;;;;;;36.13;21.70;;;11.80;1.00;;;;;;6145522;23;21225;-86
2023/02/10 12:12:34;;;;;;;34.57;23.33;;;11.20;1.00;;;;;;6144210;23;21219;-83
2023/02/10 12:15:23;;;;;;;40.47;23.93;;;10.70;1.00;;;;;;6144168;23;20395;-85
2023/02/10 12:18:16;;;;;;;39.93;23.27;;;10.50;1.00;;;;;;6144124;23;20530;-85
2023/02/10 12:21:34;;;;;;;32.63;22.27;;;10.40;1.00;;;;;;6134673;23;20480;-86
2023/02/10 12:24:46;;;;;;;34.20;22.87;;;10.30;1.00;;;;;;6003106;23;20410;-86
2023/02/10 12:27:45;;;;;;;36.77;22.60;;;10.20;1.00;;;;;;5977994;23;20904;-87
2023/02/10 12:30:33;;;;;;;35.10;24.17;;;10.70;1.00;;;;;;6002189;23;20430;-84
2023/02/10 12:33:23;;;;;;;36.53;23.40;;;11.10;1.00;;;;;;6038557;23;20500;-83
2023/02/10 12:36:03;;;;;;;32.90;22.73;;;11.20;1.00;;;;;;6138015;23;20951;-83
2023/02/10 12:38:53;;;;;;;31.97;21.57;;;11.30;1.00;;;;;;6141911;23;20525;-84
2023/02/10 12:41:34;;;;;;;41.27;23.20;;;11.70;1.00;;;;;;6139716;23;20413;-83
2023/02/10 12:44:17;;;;;;;47.33;24.77;;;12.50;1.00;;;;;;6151118;23;20410;-85
2023/02/10 12:46:54;;;;;;;32.50;21.23;;;13.50;1.00;;;;;;6139429;23;20421;-83
2023/02/10 12:49:36;;;;;;;32.10;21.37;;;13.00;1.00;;;;;;6166466;23;20983;-84
2023/02/10 12:52:16;;;;;;;35.30;22.13;;;11.90;1.00;;;;;;6166576;23;20423;-83
2023/02/10 12:55:02;;;;;;;37.50;22.50;;;11.30;1.00;;;;;;6123086;23;20412;-83
2023/02/10 12:57:45;;;;;;;34.27;21.70;;;10.70;1.00;;;;;;6140837;23;20510;-84
2023/02/10 13:00:34;;;;;;;33.87;22.70;;;10.30;1.00;;;;;;6139241;23;20423;-83
2023/02/10 13:03:12;;;;;;;36.77;23.37;;;9.90;1.00;;;;;;6154118;23;20398;-85
2023/02/10 13:05:56;;;;;;;39.42;21.92;;;9.50;1.00;;;;;;6123402;23;20407;-84
2023/02/10 13:08:33;;;;;;;39.63;22.37;;;9.30;1.00;;;;;;6152103;23;20250;-82
2023/02/10 13:11:07;;;;;;;31.67;20.87;;;9.00;1.00;;;;;;6151302;23;20423;-83
2023/02/10 13:13:41;;;;;;;34.80;23.43;;;8.60;1.00;;;;;;6151241;23;20433;-84
2023/02/10 13:16:16;;;;;;;32.63;21.15;;;8.40;1.00;;;;;;6152526;23;20422;-86
2023/02/10 13:18:53;;;;;;;35.13;20.95;;;8.30;1.00;;;;;;6125181;23;20275;-83
2023/02/10 13:21:42;;;;;;;33.65;19.17;;;8.30;1.00;;;;;;6166187;23;20211;-84
2023/02/10 13:24:23;;;;;;;31.00;20.23;;;8.30;1.00;;;;;;6140471;23;20215;-81
2023/02/10 13:27:04;;;;;;;35.92;20.52;;;8.20;1.00;;;;;;6151387;23;20265;-82
2023/02/10 13:29:42;;;;;;;33.35;19.90;;;8.20;1.00;;;;;;6141656;23;20202;-83
2023/02/10 13:32:33;;;;;;;30.58;20.10;;;8.20;1.00;;;;;;6155789;23;20252;-83
2023/02/10 13:35:16;;;;;;;38.73;22.30;;;8.40;1.00;;;;;;6141713;23;20312;-82
2023/02/10 13:38:16;;;;;;;33.90;20.37;;;8.50;1.00;;;;;;6137190;23;21144;-83
2023/02/10 13:41:40;;;;;;;32.33;19.10;;;8.40;1.00;;;;;;6145181;23;20467;-83
2023/02/10 13:44:05;;;;;;;33.42;19.73;;;8.40;1.00;;;;;;6161605;23;20378;-83
2023/02/10 13:46:57;;;;;;;28.80;17.92;;;8.30;1.00;;;;;;6139634;23;20205;-83
2023/02/10 13:49:55;;;;;;;31.05;17.95;;;8.30;1.00;;;;;;6175635;23;20211;-83
2023/02/10 13:52:34;;;;;;;33.83;20.23;;;8.30;1.00;;;;;;6161320;23;20208;-84
2023/02/10 13:58:36;;;;;;;31.40;18.20;;;8.30;1.00;;;;;;6146887;23;20959;-85
2023/02/10 14:01:25;;;;;;;29.55;17.95;;;8.30;1.00;;;;;;6172555;23;20225;-84
2023/02/10 14:04:14;;;;;;;30.35;16.80;;;8.20;1.00;;;;;;6170105;23;20211;-83